createdAt,value
2022-11-16T00:05:28.674Z,6.83
2022-11-16T00:05:44.683Z,6.57
2022-11-16T00:08:21.086Z,6.20
2022-11-16T00:11:09.395Z,6.47
2022-11-16T00:13:41.693Z,6.10
2022-11-16T00:19:21.233Z,5.90
2022-11-16T00:21:50.367Z,5.90
2022-11-16T00:24:37.025Z,6.33
2022-11-16T00:27:20.874Z,6.40
2022-11-16T00:36:35.832Z,5.73
2022-11-16T00:42:30.496Z,5.27
2022-11-16T00:45:01.114Z,4.63
2022-11-16T00:47:38.310Z,4.40
2022-11-16T00:50:07.127Z,3.53
2022-11-16T00:52:33.727Z,3.70
2022-11-16T00:55:00.079Z,3.63
2022-11-16T00:57:26.421Z,3.40
2022-11-16T00:59:52.822Z,3.80
2022-11-16T01:02:19.161Z,3.33
2022-11-16T01:04:45.551Z,3.20
2022-11-16T01:07:12.089Z,3.07
2022-11-16T01:09:38.566Z,3.50
2022-11-16T01:12:10.858Z,3.97
2022-11-16T01:14:39.562Z,4.00
2022-11-16T01:17:06.382Z,3.83
2022-11-16T01:19:33.098Z,3.90
2022-11-16T01:21:59.964Z,3.43
2022-11-16T01:24:27.502Z,4.10
2022-11-16T01:26:58.111Z,4.03
2022-11-16T01:29:26.151Z,3.80
2022-11-16T01:31:52.536Z,3.90
2022-11-16T01:34:19.183Z,3.27
2022-11-16T01:36:45.586Z,3.40
2022-11-16T01:39:13.242Z,3.70
2022-11-16T01:41:40.550Z,3.43
2022-11-16T01:44:32.403Z,3.40
2022-11-16T01:47:05.686Z,3.97
2022-11-16T01:49:35.054Z,3.10
2022-11-16T01:52:10.238Z,3.80
2022-11-16T01:54:40.170Z,3.33
2022-11-16T01:57:14.677Z,3.27
2022-11-16T01:59:44.027Z,2.80
2022-11-16T02:02:10.405Z,2.87
2022-11-16T02:04:36.850Z,3.10
2022-11-16T02:07:03.238Z,3.33
2022-11-16T02:09:53.588Z,2.97
2022-11-16T02:12:46.268Z,3.33
2022-11-16T02:15:15.579Z,3.17
2022-11-16T02:18:06.208Z,3.00
2022-11-16T02:20:47.646Z,3.40
2022-11-16T02:23:45.689Z,3.13
2022-11-16T02:26:47.861Z,3.03
2022-11-16T02:29:23.296Z,2.90
2022-11-16T02:31:52.469Z,3.00
2022-11-16T02:34:22.763Z,3.20
2022-11-16T02:36:54.177Z,3.60
2022-11-16T02:39:27.183Z,3.20
2022-11-16T02:41:55.235Z,3.60
2022-11-16T02:44:28.616Z,3.63
2022-11-16T02:46:59.157Z,3.67
2022-11-16T02:49:27.819Z,3.73
2022-11-16T02:55:08.052Z,3.87
2022-11-16T03:01:11.847Z,3.63
2022-11-16T03:03:48.069Z,3.77
2022-11-16T03:06:41.563Z,3.67
2022-11-16T03:09:21.212Z,3.53
2022-11-16T03:12:03.152Z,4.10
2022-11-16T03:15:19.763Z,3.80
2022-11-16T03:18:01.377Z,3.30
2022-11-16T03:34:22.339Z,2.97
2022-11-16T03:37:06.837Z,3.00
2022-11-16T03:39:44.314Z,2.80
2022-11-16T03:42:29.396Z,2.50
2022-11-16T03:45:01.450Z,2.90
2022-11-16T03:47:30.051Z,3.03
2022-11-16T03:49:58.207Z,3.10
2022-11-16T03:52:32.884Z,2.27
2022-11-16T03:55:13.876Z,2.47
2022-11-16T03:57:42.076Z,2.07
2022-11-16T04:00:20.608Z,1.80
2022-11-16T04:02:50.626Z,1.83
2022-11-16T04:05:37.113Z,1.70
2022-11-16T04:08:48.008Z,1.60
2022-11-16T04:11:40.848Z,1.60
2022-11-16T04:14:50.250Z,1.90
2022-11-16T04:21:48.518Z,2.13
2022-11-16T04:24:27.376Z,2.00
2022-11-16T04:27:29.002Z,2.50
2022-11-16T04:30:22.342Z,3.77
2022-11-16T04:33:17.361Z,4.07
2022-11-16T04:36:28.509Z,4.17
2022-11-16T04:39:04.807Z,4.50
2022-11-16T04:42:07.779Z,4.03
2022-11-16T04:45:07.292Z,4.73
2022-11-16T04:48:31.639Z,4.70
2022-11-16T04:51:08.816Z,4.70
2022-11-16T04:57:10.716Z,4.60
2022-11-16T05:00:12.595Z,3.30
2022-11-16T05:03:10.750Z,3.83
2022-11-16T05:05:50.904Z,3.97
2022-11-16T05:08:44.590Z,3.37
2022-11-16T05:11:32.267Z,3.77
2022-11-16T05:14:14.199Z,3.60
2022-11-16T05:17:48.046Z,3.90
2022-11-16T05:21:17.088Z,3.83
2022-11-16T05:24:07.718Z,3.93
2022-11-16T05:26:43.927Z,3.83
2022-11-16T05:30:23.621Z,4.33
2022-11-16T05:33:02.065Z,3.97
2022-11-16T05:35:39.565Z,4.00
2022-11-16T05:38:37.763Z,3.57
2022-11-16T05:41:08.825Z,4.33
2022-11-16T05:43:40.223Z,4.00
2022-11-16T05:46:16.909Z,3.63
2022-11-16T05:48:47.614Z,3.57
2022-11-16T05:51:40.229Z,3.93
2022-11-16T05:54:49.986Z,3.47
2022-11-16T05:57:38.472Z,3.70
2022-11-16T06:00:12.044Z,4.00
2022-11-16T06:03:05.234Z,3.10
2022-11-16T06:05:44.115Z,3.30
2022-11-16T06:08:37.832Z,3.17
2022-11-16T06:11:25.164Z,3.03
2022-11-16T06:14:20.887Z,3.17
2022-11-16T06:17:33.198Z,3.10
2022-11-16T06:20:59.078Z,3.10
2022-11-16T06:26:27.552Z,3.50
2022-11-16T06:29:06.485Z,3.10
2022-11-16T06:31:36.619Z,2.53
2022-11-16T06:34:12.349Z,2.57
2022-11-16T06:36:46.198Z,3.00
2022-11-16T06:39:34.251Z,2.87
2022-11-16T06:42:10.785Z,2.63
2022-11-16T06:44:41.834Z,2.80
2022-11-16T06:47:39.105Z,2.57
2022-11-16T06:50:14.322Z,2.43
2022-11-16T06:52:50.354Z,2.63
2022-11-16T06:55:28.175Z,3.13
2022-11-16T06:58:02.606Z,2.30
2022-11-16T07:00:42.105Z,2.87
2022-11-16T07:03:16.442Z,2.47
2022-11-16T07:05:44.096Z,2.60
2022-11-16T07:11:04.047Z,2.37
2022-11-16T07:13:51.960Z,3.00
2022-11-16T07:16:22.720Z,3.83
2022-11-16T07:19:09.898Z,2.53
2022-11-16T07:21:47.038Z,3.13
2022-11-16T07:24:45.674Z,3.00
2022-11-16T07:27:14.773Z,3.07
2022-11-16T07:29:58.480Z,2.80
2022-11-16T07:32:37.653Z,3.17
2022-11-16T07:35:06.194Z,3.30
2022-11-16T07:37:35.384Z,2.87
2022-11-16T07:40:09.660Z,3.50
2022-11-16T07:42:42.107Z,3.50
2022-11-16T07:45:14.906Z,4.20
2022-11-16T07:47:42.662Z,3.57
2022-11-16T07:50:11.931Z,3.27
2022-11-16T07:52:48.339Z,3.30
2022-11-16T07:55:34.135Z,2.57
2022-11-16T07:58:28.048Z,2.67
2022-11-16T08:01:13.356Z,2.87
2022-11-16T08:06:32.321Z,2.20
2022-11-16T08:09:28.014Z,1.70
2022-11-16T08:12:34.864Z,1.03
2022-11-16T08:15:06.793Z,1.30
2022-11-16T08:17:44.733Z,1.17
2022-11-16T08:20:37.452Z,1.50
2022-11-16T08:26:33.944Z,1.23
2022-11-16T08:29:10.678Z,1.30
2022-11-16T08:32:19.168Z,1.00
2022-11-16T08:35:38.110Z,1.20
2022-11-16T08:38:11.675Z,1.30
2022-11-16T08:40:58.191Z,1.10
2022-11-16T08:43:55.609Z,1.20
2022-11-16T08:46:33.415Z,1.23
2022-11-16T08:49:55.729Z,1.37
2022-11-16T08:52:34.371Z,1.20
2022-11-16T08:55:22.797Z,0.90
2022-11-16T08:58:11.101Z,0.97
2022-11-16T09:01:24.947Z,0.70
2022-11-16T09:04:04.608Z,1.00
2022-11-16T09:06:37.837Z,0.90
2022-11-16T09:09:06.545Z,0.83
2022-11-16T09:11:35.172Z,0.90
2022-11-16T09:14:06.679Z,0.90
2022-11-16T09:16:39.273Z,0.97
2022-11-16T09:19:15.362Z,0.77
2022-11-16T09:27:52.475Z,0.90
2022-11-16T09:30:29.148Z,0.80
2022-11-16T09:33:05.516Z,0.93
2022-11-16T09:39:03.210Z,1.43
2022-11-16T09:41:39.975Z,1.40
2022-11-16T09:44:36.092Z,1.00
2022-11-16T09:47:07.252Z,0.80
2022-11-16T09:49:43.234Z,0.80
2022-11-16T09:52:19.726Z,0.77
2022-11-16T09:54:49.884Z,2.37
2022-11-16T09:57:26.374Z,1.20
2022-11-16T10:00:03.052Z,0.77
2022-11-16T10:02:44.405Z,2.40
2022-11-16T10:05:28.870Z,0.97
2022-11-16T10:08:43.937Z,1.30
2022-11-16T10:11:43.336Z,1.00
2022-11-16T10:14:34.348Z,1.03
2022-11-16T10:17:23.923Z,1.10
2022-11-16T10:20:12.672Z,1.00
2022-11-16T10:23:10.988Z,1.10
2022-11-16T10:25:47.410Z,1.23
2022-11-16T10:31:53.470Z,1.00
2022-11-16T10:34:29.217Z,1.00
2022-11-16T10:37:09.921Z,1.40
2022-11-16T10:39:41.361Z,1.17
2022-11-16T10:42:17.480Z,1.20
2022-11-16T10:48:33.139Z,1.20
2022-11-16T10:51:24.875Z,1.33
2022-11-16T10:54:14.673Z,1.77
2022-11-16T10:56:48.570Z,1.33
2022-11-16T11:00:12.514Z,1.70
2022-11-16T11:02:56.833Z,1.60
2022-11-16T11:05:27.843Z,1.50
2022-11-16T11:08:05.946Z,1.50
2022-11-16T11:10:52.464Z,1.23
2022-11-16T11:13:37.334Z,1.13
2022-11-16T11:16:19.909Z,1.00
2022-11-16T11:18:52.026Z,0.97
2022-11-16T11:21:26.388Z,1.20
2022-11-16T11:24:29.427Z,1.30
2022-11-16T11:27:16.404Z,0.80
2022-11-16T11:32:41.369Z,0.70
2022-11-16T11:35:34.103Z,0.70
2022-11-16T11:38:08.174Z,1.20
2022-11-16T11:40:39.516Z,1.00
2022-11-16T11:43:25.639Z,1.00
2022-11-16T11:46:11.137Z,1.10
2022-11-16T11:49:07.119Z,1.30
2022-11-16T11:55:06.508Z,0.87
2022-11-16T11:58:22.879Z,1.20
2022-11-16T12:04:47.156Z,1.10
2022-11-16T12:07:29.045Z,1.10
2022-11-16T12:10:21.154Z,0.90
2022-11-16T12:13:36.295Z,1.00
2022-11-16T12:16:36.679Z,1.07
2022-11-16T12:19:28.891Z,1.50
2022-11-16T12:22:08.692Z,1.13
2022-11-16T12:24:36.866Z,1.53
2022-11-16T12:27:55.908Z,1.67
2022-11-16T12:30:31.738Z,1.00
2022-11-16T12:33:27.301Z,1.60
2022-11-16T12:39:04.731Z,1.43
2022-11-16T12:42:02.329Z,2.50
2022-11-16T12:45:15.424Z,1.47
2022-11-16T12:48:07.660Z,1.37
2022-11-16T12:51:21.787Z,0.90
2022-11-16T12:57:44.495Z,0.90
2022-11-16T13:04:24.621Z,0.97
2022-11-16T13:12:06.984Z,1.00
2022-11-16T13:16:46.502Z,0.80
2022-11-16T13:22:04.945Z,1.00
2022-11-16T13:29:04.165Z,1.00
2022-11-16T13:31:45.987Z,1.10
2022-11-16T13:34:43.219Z,1.20
2022-11-16T13:37:38.394Z,0.83
2022-11-16T13:40:09.688Z,0.80
2022-11-16T13:43:01.172Z,1.20
2022-11-16T13:45:43.935Z,1.30
2022-11-16T13:48:27.673Z,1.10
2022-11-16T13:51:10.075Z,0.90
2022-11-16T13:56:56.399Z,1.30
2022-11-16T13:59:47.119Z,0.97
2022-11-16T14:05:58.824Z,1.00
2022-11-16T14:08:49.724Z,1.90
2022-11-16T14:11:37.842Z,1.13
2022-11-16T14:14:16.094Z,1.20
2022-11-16T14:16:49.894Z,1.40
2022-11-16T14:19:45.607Z,1.60
2022-11-16T14:22:34.059Z,1.27
2022-11-16T14:25:14.981Z,0.83
2022-11-16T14:28:03.563Z,1.00
2022-11-16T14:30:50.955Z,0.97
2022-11-16T14:33:32.820Z,0.93
2022-11-16T14:36:06.705Z,0.90
2022-11-16T14:38:43.378Z,0.90
2022-11-16T14:41:23.622Z,1.00
2022-11-16T14:43:59.998Z,1.00
2022-11-16T14:46:38.481Z,1.00
2022-11-16T14:49:14.041Z,1.23
2022-11-16T14:51:55.062Z,0.90
2022-11-16T14:54:46.198Z,1.10
2022-11-16T14:57:23.235Z,1.30
2022-11-16T15:00:24.514Z,1.50
2022-11-16T15:03:02.116Z,1.20
2022-11-16T15:05:45.435Z,1.07
2022-11-16T15:08:48.007Z,1.20
2022-11-16T15:11:45.958Z,0.70
2022-11-16T15:14:21.420Z,3.50
2022-11-16T15:16:55.316Z,2.33
2022-11-16T15:19:25.938Z,1.20
2022-11-16T15:21:59.143Z,1.27
2022-11-16T15:30:41.416Z,2.37
2022-11-16T15:33:17.901Z,1.90
2022-11-16T15:35:45.959Z,1.40
2022-11-16T15:38:36.220Z,1.80
2022-11-16T15:41:08.788Z,1.53
2022-11-16T15:44:15.562Z,1.93
2022-11-16T15:46:59.348Z,1.43
2022-11-16T15:53:05.173Z,2.10
2022-11-16T15:54:29.470Z,1.90
2022-11-16T15:59:42.938Z,1.70
2022-11-16T16:02:19.647Z,1.60
2022-11-16T16:05:44.017Z,1.73
2022-11-16T16:09:15.576Z,1.70
2022-11-16T16:11:50.846Z,1.77
2022-11-16T16:14:41.506Z,2.07
2022-11-16T16:17:25.735Z,2.40
2022-11-16T16:23:51.692Z,2.00
2022-11-16T16:26:22.732Z,2.80
2022-11-16T16:29:30.599Z,3.03
2022-11-16T16:32:55.423Z,2.80
2022-11-16T16:35:33.330Z,2.07
2022-11-16T16:38:18.878Z,2.33
2022-11-16T16:40:49.584Z,2.17
2022-11-16T16:43:26.085Z,2.10
2022-11-16T16:45:56.553Z,2.40
2022-11-16T16:48:24.200Z,2.13
2022-11-16T16:50:50.634Z,1.57
2022-11-16T16:53:17.567Z,2.10
2022-11-16T16:55:44.663Z,1.70
2022-11-16T16:58:13.155Z,1.53
2022-11-16T17:00:40.508Z,1.50
2022-11-16T17:09:10.846Z,3.17
2022-11-16T17:11:40.952Z,3.10
2022-11-16T17:14:38.245Z,3.37
2022-11-16T17:17:16.941Z,4.93
2022-11-16T17:19:48.291Z,3.70
2022-11-16T17:22:21.506Z,3.17
2022-11-16T17:24:52.048Z,3.10
2022-11-16T17:27:25.787Z,3.53
2022-11-16T17:30:41.980Z,2.80
2022-11-16T17:33:12.155Z,2.27
2022-11-16T17:36:15.616Z,2.77
2022-11-16T17:38:48.524Z,2.80
2022-11-16T17:41:36.412Z,4.80
2022-11-16T17:44:07.878Z,4.67
2022-11-16T17:53:32.642Z,3.17
2022-11-16T17:56:01.129Z,2.67
2022-11-16T18:01:42.790Z,2.47
2022-11-16T18:04:15.745Z,2.67
2022-11-16T18:06:59.253Z,2.37
2022-11-16T18:12:35.756Z,2.43
2022-11-16T18:15:30.044Z,2.90
2022-11-16T18:18:55.356Z,2.60
2022-11-16T18:21:25.379Z,2.60
2022-11-16T18:24:10.327Z,2.20
2022-11-16T18:26:50.332Z,2.80
2022-11-16T18:29:25.598Z,2.97
2022-11-16T18:32:13.474Z,2.77
2022-11-16T18:39:20.532Z,2.73
2022-11-16T18:41:58.543Z,2.73
2022-11-16T18:44:26.395Z,2.70
2022-11-16T18:46:58.950Z,2.63
2022-11-16T18:50:02.951Z,2.60
2022-11-16T18:52:36.141Z,2.93
2022-11-16T18:55:34.932Z,2.60
2022-11-16T19:01:21.255Z,2.33
2022-11-16T19:10:59.599Z,2.60
2022-11-16T19:13:48.733Z,2.73
2022-11-16T19:16:51.108Z,3.53
2022-11-16T19:24:10.251Z,3.20
2022-11-16T19:26:47.530Z,3.70
2022-11-16T19:32:23.163Z,3.37
2022-11-16T19:35:09.912Z,2.93
2022-11-16T19:37:49.410Z,3.43
2022-11-16T19:43:32.974Z,3.03
2022-11-16T19:49:54.142Z,3.20
2022-11-16T19:55:57.873Z,3.10
2022-11-16T19:58:26.065Z,4.10
2022-11-16T20:07:06.425Z,3.27
2022-11-16T20:09:53.515Z,3.50
2022-11-16T20:12:26.968Z,4.93
2022-11-16T20:14:58.718Z,3.60
2022-11-16T20:17:43.638Z,3.90
2022-11-16T20:20:37.975Z,4.00
2022-11-16T20:23:08.505Z,4.20
2022-11-16T20:25:50.399Z,4.20
2022-11-16T20:42:37.554Z,4.23
2022-11-16T20:43:15.808Z,4.00
2022-11-16T20:46:04.507Z,4.20
2022-11-16T21:03:01.485Z,4.03
2022-11-16T21:05:27.705Z,4.23
2022-11-16T21:11:24.199Z,3.97
2022-11-16T21:21:10.283Z,4.83
2022-11-16T21:35:40.826Z,4.23
2022-11-16T21:39:28.098Z,15.57
2022-11-16T21:42:51.735Z,4.30
2022-11-16T21:46:07.998Z,4.10
2022-11-16T21:56:18.625Z,4.20
2022-11-16T21:59:40.108Z,5.30
2022-11-16T23:06:00.103Z,4.10
2022-11-16T23:12:55.891Z,3.70
2022-11-16T23:15:58.103Z,3.70
2022-11-16T23:18:37.069Z,3.17
2022-11-16T23:18:41.723Z,3.60
2022-11-16T23:21:25.611Z,3.23
2022-11-16T23:24:23.606Z,3.30
2022-11-16T23:27:16.539Z,3.33
2022-11-16T23:29:54.288Z,3.37
2022-11-16T23:32:37.021Z,2.97
2022-11-16T23:35:15.532Z,2.97
2022-11-16T23:38:03.415Z,3.20
2022-11-16T23:40:48.634Z,3.23
2022-11-16T23:43:49.486Z,3.20
2022-11-16T23:46:21.577Z,3.30
2022-11-16T23:52:05.065Z,3.20
2022-11-16T23:54:39.403Z,3.03
2022-11-16T23:57:34.737Z,2.93
